Thursday, April 28, 2016
19:51 UTC
  |  Log In   |  Register Free
Airport Search:

Raton Municipal/Crews Field Airport
(KRTN)

Raton Municipal/Crews Field Airport Diagram
No Airport Diagram Available

FAA data valid effective Mar 31 2016 - May 26 2016 (unless otherwise noted).

 
 
 
 
 
 
 
 
 
 
 
 
 
 
Current Aviation Weather for KRTN

Weather Summary


The most recent METAR observation for RTN was updated at: 12:53 UTC
METAR for KRTN is not available. Closest METAR is for KTAD
KRTN  (most recent observation was updatred at 28:18 UTC)
281853Z AUTO 22009KT 180V250 10SM BKN044 12/01 A2988 RMK AO2 SLP068 T01220006

KTAD  (32.0 nm SW)   (most recent observation was updated at 28:18 UTC)
281854Z AUTO 05015G24KT 10SM FEW038 13/01 A2989 RMK AO2 SLP082 T01280011

TAF for KRTN is not available.
GlobalAir.com is loading additional information.
 Current Weather at RTN
52.0 F° (11.1 C°)

Variable winds at 3.5 mph
Pressure:
29.89 in
Humidity:
50%
Wind:
Variable at 3.5 mph
Dew Point:
34.0 F° (1.1 C°)
Visibility:
10.00 mi
RTN NOAA Radar




Find All Airport Services Find A Hotel Find A Rental Car Find A Golf Course Find A Restaurant $100 Hamburger



Airport Weather Forecast for KRTN

Translated METAR for KRTN (1853 UTC)
METAR:
KRTN 281853Z AUTO 22009KT 180V250 10SM BKN044 12/01 A2988 RMK AO2 SLP068 T01220006
Conditions at:
KRTN (Raton Muni/Crews Field, NM) observed 1853 UTC 28 April 2016
Temperature:
12°C (53.6°F)
Dewpoint:
1°C (33.8°F) [RH = 46.9]
Pressure:
29.88 inches Hg (1011.9 mb)
pressure at sea level is 68 in Hg
Winds:
from the SW (220 degrees) at 10.4 mph (9 knots: 4.6 m/s)
Visibility:
10 mile(s)
Ceiling:
4,400 feet AGL
Clouds:
Broken Cloud Cover at 4,400 feet AGL
Remarks:
site is un-manned
site is automated and HAS a precipitation sensor

Translated TAF for TAF for RTN is not available. Refer to local area forecast.
FBO's on the Field
FBO Company Facility Photos Services Transportation Aviation Fuel Prices: Prices include tax
Catering Weather Repair Courtesy Rental Type 100LL JetA JetA+ MOGAS 8087
 
Express Aviation Services

This FBO has not yet been rated
FS:Phillips 66
Last Updated: Apr-10
Login to update fuel prices
SS:
Contact Express Aviation ServicesMore FBO Information
 
Add another FBO Facility Photos Catering Weather Repair Courtesy Rental Type 100LL JetA JetA+ MOGAS 8087
Services Transportation Aviation Fuel Prices: Prices include tax


model-print
model-print
model-print
model-print